createdAt,value
2022-12-18T00:04:38.089Z,101433.22
2022-12-18T00:09:40.641Z,101431.22
2022-12-18T00:14:43.207Z,101432.41
2022-12-18T00:19:44.774Z,101443.03
2022-12-18T00:24:46.483Z,101449.53
2022-12-18T00:29:49.322Z,101460.47
2022-12-18T00:34:51.016Z,101458.22
2022-12-18T00:39:52.710Z,101454.63
2022-12-18T00:44:55.193Z,101459.69
2022-12-18T00:49:56.770Z,101463.63
2022-12-18T00:55:03.059Z,101457.59
2022-12-18T01:00:10.204Z,101462.66
2022-12-18T01:05:16.514Z,101464.94
2022-12-18T01:10:18.640Z,101474.72
2022-12-18T01:15:21.408Z,101487.63
2022-12-18T01:20:23.341Z,101488.22
2022-12-18T01:25:24.998Z,101475.88
2022-12-18T01:30:26.565Z,101469.31
2022-12-18T01:35:28.312Z,101479.03
2022-12-18T01:40:30.429Z,101484.34
2022-12-18T01:45:32.941Z,101495.00
2022-12-18T01:50:40.862Z,101493.66
2022-12-18T01:55:52.931Z,101481.72
2022-12-18T02:00:56.732Z,101490.75
2022-12-18T02:06:05.912Z,101498.88
2022-12-18T02:11:35.892Z,101515.09
2022-12-18T02:17:02.053Z,101518.28
2022-12-18T02:22:25.475Z,101518.91
2022-12-18T02:27:28.977Z,101525.00
2022-12-18T02:32:38.577Z,101532.66
2022-12-18T02:37:42.917Z,101532.22
2022-12-18T02:42:45.348Z,101532.53
2022-12-18T02:47:51.413Z,101535.44
2022-12-18T02:53:18.014Z,101546.00
2022-12-18T02:58:26.023Z,101552.81
2022-12-18T03:03:39.888Z,101555.16
2022-12-18T03:08:50.585Z,101560.66
2022-12-18T03:13:59.247Z,101571.94
2022-12-18T03:19:13.576Z,101560.66
2022-12-18T03:24:20.154Z,101564.00
2022-12-18T03:29:28.152Z,101574.53
2022-12-18T03:34:33.563Z,101567.34
2022-12-18T03:39:38.555Z,101559.22
2022-12-18T03:45:02.953Z,101567.03
2022-12-18T03:50:12.810Z,101567.78
2022-12-18T03:55:18.652Z,101565.59
2022-12-18T04:00:23.053Z,101574.28
2022-12-18T04:05:39.860Z,101577.03
2022-12-18T04:10:42.821Z,101584.25
2022-12-18T04:15:44.753Z,101590.59
2022-12-18T04:20:50.135Z,101597.69
2022-12-18T04:25:53.279Z,101611.44
2022-12-18T04:31:10.857Z,101617.63
2022-12-18T04:36:13.439Z,101613.31
2022-12-18T04:41:16.042Z,101617.59
2022-12-18T04:46:20.553Z,101627.16
2022-12-18T04:51:26.344Z,101634.66
2022-12-18T04:56:28.499Z,101641.13
2022-12-18T05:01:34.596Z,101645.88
2022-12-18T05:06:36.756Z,101651.81
2022-12-18T05:11:38.521Z,101665.88
2022-12-18T05:16:40.198Z,101671.34
2022-12-18T05:21:42.171Z,101674.66
2022-12-18T05:26:44.402Z,101675.78
2022-12-18T05:31:46.112Z,101667.25
2022-12-18T05:36:47.798Z,101675.41
2022-12-18T05:41:49.456Z,101683.09
2022-12-18T05:46:51.127Z,101684.63
2022-12-18T05:51:52.976Z,101685.66
2022-12-18T05:56:54.913Z,101694.44
2022-12-18T06:01:56.577Z,101695.88
2022-12-18T06:06:58.624Z,101697.13
2022-12-18T06:12:00.252Z,101696.25
2022-12-18T06:17:02.303Z,101702.53
2022-12-18T06:22:03.921Z,101705.72
2022-12-18T06:27:05.508Z,101713.09
2022-12-18T06:32:07.185Z,101714.41
2022-12-18T06:37:09.043Z,101733.91
2022-12-18T06:42:10.810Z,101734.50
2022-12-18T06:47:12.422Z,101749.97
2022-12-18T06:52:14.198Z,101737.72
2022-12-18T06:57:16.129Z,101756.47
2022-12-18T07:02:18.612Z,101762.09
2022-12-18T07:07:20.531Z,101766.19
2022-12-18T07:12:22.130Z,101786.06
2022-12-18T07:17:23.818Z,101803.09
2022-12-18T07:22:27.104Z,101808.00
2022-12-18T07:27:28.697Z,101811.06
2022-12-18T07:32:31.526Z,101814.75
2022-12-18T07:37:33.259Z,101824.28
2022-12-18T07:42:35.796Z,101834.72
2022-12-18T07:47:37.654Z,101847.53
2022-12-18T07:52:39.310Z,101855.97
2022-12-18T07:57:50.701Z,101863.00
2022-12-18T08:02:54.334Z,101862.56
2022-12-18T08:07:56.992Z,101870.56
2022-12-18T08:13:04.463Z,101873.53
2022-12-18T08:18:10.102Z,101875.06
2022-12-18T08:23:14.319Z,101885.22
2022-12-18T08:28:15.911Z,101894.66
2022-12-18T08:33:17.580Z,101881.97
2022-12-18T08:38:19.267Z,101877.25
2022-12-18T08:43:40.645Z,101892.88
2022-12-18T08:48:42.673Z,101886.47
2022-12-18T08:53:45.481Z,101891.31
2022-12-18T08:58:47.615Z,101899.75
2022-12-18T09:03:50.728Z,101891.22
2022-12-18T09:08:52.380Z,101902.53
2022-12-18T09:13:55.121Z,101903.84
2022-12-18T09:19:00.529Z,101898.47
2022-12-18T09:24:02.240Z,101899.38
2022-12-18T09:29:04.916Z,101921.41
2022-12-18T09:34:06.993Z,101924.31
2022-12-18T09:39:09.132Z,101917.94
2022-12-18T09:44:13.746Z,101913.31
2022-12-18T09:49:19.173Z,101915.63
2022-12-18T09:54:32.279Z,101895.78
2022-12-18T09:59:40.691Z,101886.06
2022-12-18T10:04:43.068Z,101891.41
2022-12-18T10:10:02.067Z,101880.53
2022-12-18T10:15:15.900Z,101889.78
2022-12-18T10:20:30.911Z,101886.91
2022-12-18T10:25:42.607Z,101892.31
2022-12-18T10:30:45.005Z,101880.97
2022-12-18T10:35:49.010Z,101878.69
2022-12-18T10:41:03.891Z,101879.59
2022-12-18T10:46:08.693Z,101889.88
2022-12-18T10:51:13.127Z,101878.44
2022-12-18T10:56:21.675Z,101858.03
2022-12-18T11:01:23.650Z,101871.91
2022-12-18T11:06:26.646Z,101864.00
2022-12-18T11:11:29.372Z,101863.53
2022-12-18T11:16:36.078Z,101866.34
2022-12-18T11:21:42.644Z,101850.91
2022-12-18T11:26:44.398Z,101850.56
2022-12-18T11:31:46.448Z,101851.84
2022-12-18T11:36:49.525Z,101853.25
2022-12-18T11:42:12.403Z,101857.56
2022-12-18T11:47:29.352Z,101847.25
2022-12-18T11:52:40.043Z,101834.25
2022-12-18T11:58:39.219Z,101844.81
2022-12-18T12:03:50.896Z,101834.78
2022-12-18T12:09:11.787Z,101821.66
2022-12-18T12:14:31.124Z,101837.84
2022-12-18T12:19:54.934Z,101824.84
2022-12-18T12:25:21.224Z,101844.75
2022-12-18T12:30:40.436Z,101833.69
2022-12-18T12:35:47.924Z,101827.06
2022-12-18T12:41:04.021Z,101800.59
2022-12-18T12:46:08.350Z,101810.72
2022-12-18T12:51:38.083Z,101805.59
2022-12-18T12:57:04.351Z,101802.91
2022-12-18T13:02:24.121Z,101808.78
2022-12-18T13:07:33.555Z,101807.69
2022-12-18T13:12:53.417Z,101812.63
2022-12-18T13:18:10.264Z,101826.19
2022-12-18T13:23:28.699Z,101826.66
2022-12-18T13:28:34.174Z,101840.38
2022-12-18T13:33:35.920Z,101844.84
2022-12-18T13:38:39.747Z,101841.00
2022-12-18T13:43:47.592Z,101829.91
2022-12-18T13:48:53.180Z,101839.69
2022-12-18T13:54:01.070Z,101848.00
2022-12-18T13:59:14.838Z,101851.66
2022-12-18T14:04:24.612Z,101846.44
2022-12-18T14:09:30.048Z,101859.41
2022-12-18T14:14:33.797Z,101858.09
2022-12-18T14:19:36.886Z,101860.34
2022-12-18T14:24:38.521Z,101875.41
2022-12-18T14:29:44.067Z,101884.00
2022-12-18T14:34:56.247Z,101893.03
2022-12-18T14:40:03.148Z,101886.47
2022-12-18T14:45:41.589Z,101898.06
2022-12-18T14:50:45.157Z,101895.06
2022-12-18T14:55:48.895Z,101893.44
2022-12-18T15:00:51.304Z,101894.19
2022-12-18T15:05:52.945Z,101896.44
2022-12-18T15:10:54.786Z,101900.59
2022-12-18T15:16:02.394Z,101914.59
2022-12-18T15:21:12.341Z,101909.22
2022-12-18T15:26:16.562Z,101910.81
2022-12-18T15:31:18.330Z,101897.31
2022-12-18T15:36:26.367Z,101905.81
2022-12-18T15:41:34.502Z,101895.91
2022-12-18T15:46:37.996Z,101904.00
2022-12-18T15:51:40.895Z,101897.16
2022-12-18T15:57:01.546Z,101899.03
2022-12-18T16:02:03.455Z,101910.03
2022-12-18T16:07:14.861Z,101904.50
2022-12-18T16:12:23.965Z,101917.44
2022-12-18T16:17:25.681Z,101914.97
2022-12-18T16:22:30.032Z,101930.06
2022-12-18T16:27:31.947Z,101929.47
2022-12-18T16:32:33.967Z,101919.59
2022-12-18T16:37:35.963Z,101909.13
2022-12-18T16:42:38.856Z,101917.81
2022-12-18T16:47:42.125Z,101921.13
2022-12-18T16:52:45.209Z,101913.59
2022-12-18T16:57:46.882Z,101912.25
2022-12-18T17:02:51.076Z,101897.78
2022-12-18T17:07:52.901Z,101890.41
2022-12-18T17:12:56.355Z,101909.44
2022-12-18T17:18:05.707Z,101917.91
2022-12-18T17:23:09.490Z,101900.47
2022-12-18T17:28:12.589Z,101896.16
2022-12-18T17:33:14.537Z,101889.59
2022-12-18T17:38:18.193Z,101906.69
2022-12-18T17:43:20.666Z,101901.63
2022-12-18T17:48:25.597Z,101902.63
2022-12-18T17:53:30.191Z,101911.47
2022-12-18T17:58:33.577Z,101915.19
2022-12-18T18:03:38.133Z,101907.94
2022-12-18T18:08:40.061Z,101910.81
2022-12-18T18:14:08.231Z,101908.72
2022-12-18T18:19:16.712Z,101901.72
2022-12-18T18:24:20.847Z,101906.06
2022-12-18T18:29:26.970Z,101900.78
2022-12-18T18:34:32.504Z,101905.53
2022-12-18T18:39:34.807Z,101890.84
2022-12-18T18:44:36.797Z,101901.88
2022-12-18T18:49:38.719Z,101906.06
2022-12-18T18:54:57.107Z,101918.38
2022-12-18T19:00:04.172Z,101912.84
2022-12-18T19:05:05.990Z,101918.38
2022-12-18T19:10:08.581Z,101923.00
2022-12-18T19:15:10.336Z,101908.16
2022-12-18T19:20:12.073Z,101905.69
2022-12-18T19:25:15.086Z,101903.22
2022-12-18T19:30:17.006Z,101909.75
2022-12-18T19:35:18.636Z,101904.94
2022-12-18T19:40:20.390Z,101907.81
2022-12-18T19:45:22.048Z,101902.16
2022-12-18T19:50:25.530Z,101923.19
2022-12-18T19:55:27.565Z,101919.84
2022-12-18T20:00:29.180Z,101910.69
2022-12-18T20:05:31.137Z,101918.72
2022-12-18T20:10:33.082Z,101910.69
2022-12-18T20:15:34.679Z,101905.75
2022-12-18T20:20:38.922Z,101917.84
2022-12-18T20:25:41.930Z,101903.34
2022-12-18T20:30:43.656Z,101899.75
2022-12-18T20:35:45.362Z,101907.63
2022-12-18T20:40:47.861Z,101898.41
2022-12-18T20:45:49.521Z,101895.66
2022-12-18T20:51:03.802Z,101887.44
2022-12-18T20:56:13.763Z,101871.91
2022-12-18T21:01:21.149Z,101864.41
2022-12-18T21:06:24.484Z,101863.88
2022-12-18T21:11:47.389Z,101859.13
2022-12-18T21:16:50.014Z,101860.91
2022-12-18T21:21:52.782Z,101870.84
2022-12-18T21:26:54.641Z,101860.69
2022-12-18T21:31:56.929Z,101855.94
2022-12-18T21:37:00.363Z,101851.47
2022-12-18T21:42:20.505Z,101850.34
2022-12-18T21:47:23.481Z,101838.75
2022-12-18T21:52:32.372Z,101835.56
2022-12-18T21:57:34.357Z,101834.88
2022-12-18T22:02:36.135Z,101854.47
2022-12-18T22:07:38.329Z,101851.31
2022-12-18T22:12:43.719Z,101853.34
2022-12-18T22:17:46.921Z,101852.16
2022-12-18T22:22:50.396Z,101858.25
2022-12-18T22:28:10.917Z,101846.63
2022-12-18T22:33:12.888Z,101849.84
2022-12-18T22:38:14.530Z,101834.28
2022-12-18T22:43:16.336Z,101824.41
2022-12-18T22:48:18.164Z,101826.72
2022-12-18T22:53:20.920Z,101804.69
2022-12-18T22:58:22.564Z,101795.75
2022-12-18T23:03:24.177Z,101799.03
2022-12-18T23:08:25.873Z,101787.69
2022-12-18T23:13:30.154Z,101791.56
2022-12-18T23:18:31.895Z,101793.97
2022-12-18T23:23:37.085Z,101795.56
2022-12-18T23:28:39.538Z,101797.56
2022-12-18T23:33:41.568Z,101790.16
2022-12-18T23:38:47.719Z,101783.28
2022-12-18T23:43:49.862Z,101785.22
2022-12-18T23:48:51.965Z,101785.16
2022-12-18T23:53:56.363Z,101773.28
2022-12-18T23:58:58.069Z,101761.13
